createdAt,value
2019-04-05T00:01:35.194Z,60.70
2019-04-05T00:04:08.340Z,60.80
2019-04-05T00:06:39.372Z,60.90
2019-04-05T00:09:10.539Z,61.00
2019-04-05T00:11:41.533Z,61.20
2019-04-05T00:14:17.123Z,61.50
2019-04-05T00:16:48.627Z,61.40
2019-04-05T00:19:19.129Z,61.30
2019-04-05T00:21:50.339Z,61.00
2019-04-05T00:24:21.401Z,61.10
2019-04-05T00:26:53.292Z,60.90
2019-04-05T00:29:25.824Z,61.10
2019-04-05T00:31:55.770Z,61.00
2019-04-05T00:34:28.260Z,61.00
2019-04-05T00:36:59.469Z,60.90
2019-04-05T00:39:31.410Z,61.10
2019-04-05T00:42:04.161Z,61.20
2019-04-05T00:44:35.316Z,61.10
2019-04-05T00:47:07.695Z,61.20
2019-04-05T00:49:41.235Z,61.20
2019-04-05T00:52:14.605Z,61.10
2019-04-05T00:54:48.426Z,61.20
2019-04-05T00:57:22.020Z,61.30
2019-04-05T00:59:54.423Z,61.30
2019-04-05T01:02:27.059Z,61.80
2019-04-05T01:04:57.191Z,61.80
2019-04-05T01:07:29.763Z,61.80
2019-04-05T01:10:03.358Z,62.00
2019-04-05T01:12:34.246Z,62.10
2019-04-05T01:15:07.989Z,62.30
2019-04-05T01:17:41.012Z,62.20
2019-04-05T01:20:11.526Z,62.20
2019-04-05T01:22:44.110Z,62.50
2019-04-05T01:25:15.781Z,62.50
2019-04-05T01:27:48.460Z,62.60
2019-04-05T01:30:20.613Z,62.70
2019-04-05T01:32:53.235Z,62.80
2019-04-05T01:35:26.804Z,62.70
2019-04-05T01:38:01.751Z,62.60
2019-04-05T01:40:34.037Z,62.60
2019-04-05T01:43:08.356Z,62.70
2019-04-05T01:45:52.707Z,63.00
2019-04-05T01:48:14.583Z,63.50
2019-04-05T01:50:47.251Z,63.80
2019-04-05T01:53:18.399Z,64.10
2019-04-05T01:55:52.300Z,64.50
2019-04-05T01:58:25.826Z,64.90
2019-04-05T02:00:58.463Z,65.20
2019-04-05T02:03:29.986Z,65.90
2019-04-05T02:06:00.391Z,66.10
2019-04-05T02:08:30.539Z,66.40
2019-04-05T02:11:03.235Z,66.60
2019-04-05T02:13:34.370Z,67.00
2019-04-05T02:16:07.795Z,67.00
2019-04-05T02:18:38.679Z,67.10
2019-04-05T02:21:10.090Z,67.40
2019-04-05T02:23:40.098Z,67.60
2019-04-05T02:26:11.560Z,67.80
2019-04-05T02:28:43.027Z,67.80
2019-04-05T02:31:13.033Z,67.80
2019-04-05T02:33:46.500Z,67.70
2019-04-05T02:36:19.366Z,67.80
2019-04-05T02:38:52.254Z,67.90
2019-04-05T02:41:28.677Z,68.20
2019-04-05T02:44:04.714Z,68.20
2019-04-05T02:46:37.168Z,68.40
2019-04-05T02:49:29.321Z,68.40
2019-04-05T02:52:01.736Z,68.70
2019-04-05T02:54:34.196Z,68.70
2019-04-05T02:57:04.687Z,69.00
2019-04-05T02:59:36.786Z,69.00
2019-04-05T03:02:07.236Z,69.20
2019-04-05T03:04:38.461Z,69.50
2019-04-05T03:07:09.081Z,69.80
2019-04-05T03:09:40.618Z,69.90
2019-04-05T03:12:12.047Z,70.10
2019-04-05T03:14:44.490Z,70.30
2019-04-05T03:17:17.574Z,70.30
2019-04-05T03:19:53.875Z,70.40
2019-04-05T03:22:26.782Z,70.70
2019-04-05T03:25:03.115Z,70.50
2019-04-05T03:27:37.433Z,70.50
2019-04-05T03:30:11.924Z,70.70
2019-04-05T03:32:47.001Z,70.70
2019-04-05T03:35:19.486Z,70.80
2019-04-05T03:37:49.601Z,70.70
2019-04-05T03:40:20.880Z,71.00
2019-04-05T03:42:55.630Z,71.40
2019-04-05T03:45:27.387Z,71.60
2019-04-05T03:47:58.419Z,71.70
2019-04-05T03:50:31.451Z,71.80
2019-04-05T03:53:05.298Z,72.00
2019-04-05T03:55:38.113Z,72.10
2019-04-05T03:58:09.767Z,72.10
2019-04-05T04:00:41.169Z,72.20
2019-04-05T04:03:12.546Z,72.30
2019-04-05T04:05:43.727Z,72.30
2019-04-05T04:08:16.285Z,72.30
2019-04-05T04:10:49.953Z,72.20
2019-04-05T04:13:20.649Z,72.60
2019-04-05T04:15:53.553Z,72.50
2019-04-05T04:18:24.963Z,72.60
2019-04-05T04:21:05.651Z,72.80
2019-04-05T04:23:51.868Z,72.90
2019-04-05T04:26:23.723Z,72.80
2019-04-05T04:28:56.300Z,72.90
2019-04-05T04:31:28.669Z,72.90
2019-04-05T04:34:01.337Z,72.90
2019-04-05T04:36:35.972Z,73.10
2019-04-05T04:39:16.623Z,73.10
2019-04-05T04:41:53.588Z,73.10
2019-04-05T04:44:28.203Z,73.10
2019-04-05T04:46:58.655Z,72.50
2019-04-05T04:49:30.622Z,72.50
2019-04-05T04:52:02.640Z,72.60
2019-04-05T04:54:35.587Z,72.80
2019-04-05T04:57:08.702Z,72.70
2019-04-05T04:59:41.918Z,72.90
2019-04-05T05:02:14.702Z,73.10
2019-04-05T05:04:48.931Z,72.80
2019-04-05T05:07:20.652Z,72.50
2019-04-05T05:09:58.595Z,72.30
2019-04-05T05:12:36.139Z,72.20
2019-04-05T05:15:08.200Z,72.30
2019-04-05T05:17:39.151Z,72.20
2019-04-05T05:20:12.781Z,71.90
2019-04-05T05:22:43.114Z,71.30
2019-04-05T05:25:14.863Z,71.10
2019-04-05T05:27:48.627Z,70.80
2019-04-05T05:30:19.976Z,70.50
2019-04-05T05:32:53.073Z,70.40
2019-04-05T05:35:24.754Z,70.30
2019-04-05T05:37:56.376Z,69.60
2019-04-05T05:40:34.842Z,69.20
2019-04-05T05:43:00.680Z,68.80
2019-04-05T05:45:50.958Z,68.60
2019-04-05T05:48:23.818Z,68.00
2019-04-05T05:50:54.062Z,67.90
2019-04-05T05:53:25.508Z,67.20
2019-04-05T05:55:56.713Z,66.80
2019-04-05T05:58:29.809Z,66.70
2019-04-05T06:01:03.856Z,66.60
2019-04-05T06:03:36.414Z,66.00
2019-04-05T06:06:09.683Z,65.70
2019-04-05T06:08:41.195Z,65.10
2019-04-05T06:11:13.596Z,65.00
2019-04-05T06:13:46.728Z,64.80
2019-04-05T06:16:19.250Z,64.30
2019-04-05T06:18:55.158Z,64.00
2019-04-05T06:21:28.750Z,63.90
2019-04-05T06:24:00.478Z,63.70
2019-04-05T06:26:37.071Z,63.70
2019-04-05T06:29:08.474Z,63.30
2019-04-05T06:31:38.744Z,63.20
2019-04-05T06:34:08.953Z,62.80
2019-04-05T06:36:41.620Z,62.50
2019-04-05T06:39:11.914Z,62.30
2019-04-05T06:41:47.016Z,62.30
2019-04-05T06:44:18.586Z,61.60
2019-04-05T06:46:49.506Z,61.20
2019-04-05T06:49:22.597Z,61.20
2019-04-05T06:51:53.982Z,61.10
2019-04-05T06:54:27.105Z,60.60
2019-04-05T06:57:02.481Z,60.00
2019-04-05T06:59:39.144Z,59.70
2019-04-05T07:02:11.092Z,60.00
2019-04-05T07:04:43.863Z,60.10
2019-04-05T07:07:17.747Z,59.60
2019-04-05T07:09:50.249Z,59.20
2019-04-05T07:12:20.985Z,59.00
2019-04-05T07:14:51.098Z,59.30
2019-04-05T07:17:23.738Z,58.80
2019-04-05T07:19:56.295Z,58.50
2019-04-05T07:22:38.430Z,57.90
2019-04-05T07:25:02.548Z,57.80
2019-04-05T07:27:32.549Z,57.70
2019-04-05T07:30:04.715Z,58.00
2019-04-05T07:32:37.358Z,56.90
2019-04-05T07:35:09.620Z,57.10
2019-04-05T07:37:39.213Z,56.90
2019-04-05T07:40:09.832Z,56.30
2019-04-05T07:42:46.833Z,56.10
2019-04-05T07:45:19.424Z,55.90
2019-04-05T07:47:50.991Z,54.90
2019-04-05T07:50:23.739Z,54.40
2019-04-05T07:52:57.594Z,54.20
2019-04-05T07:55:30.293Z,53.70
2019-04-05T07:58:01.428Z,53.40
2019-04-05T08:00:45.624Z,52.90
2019-04-05T08:03:19.127Z,52.00
2019-04-05T08:05:51.290Z,52.20
2019-04-05T08:08:32.597Z,52.00
2019-04-05T08:11:06.752Z,51.20
2019-04-05T08:16:14.297Z,51.10
2019-04-05T08:18:57.086Z,50.70
2019-04-05T08:21:22.111Z,50.10
2019-04-05T08:23:53.782Z,50.20
2019-04-05T08:26:27.277Z,49.30
2019-04-05T08:28:58.626Z,49.70
2019-04-05T08:31:29.592Z,49.70
2019-04-05T08:33:59.824Z,49.60
2019-04-05T08:36:32.830Z,49.40
2019-04-05T08:39:04.230Z,49.60
2019-04-05T08:41:36.904Z,48.30
2019-04-05T08:44:10.318Z,47.60
2019-04-05T08:46:43.033Z,48.10
2019-04-05T08:49:16.303Z,47.20
2019-04-05T08:51:46.876Z,47.90
2019-04-05T08:54:33.207Z,47.60
2019-04-05T08:57:01.129Z,47.00
2019-04-05T08:59:32.226Z,46.10
2019-04-05T09:02:03.382Z,46.20
2019-04-05T09:04:37.719Z,46.80
2019-04-05T09:07:15.189Z,46.80
2019-04-05T09:09:46.289Z,46.60
2019-04-05T09:12:18.709Z,46.00
2019-04-05T09:14:50.596Z,46.10
2019-04-05T09:17:24.265Z,45.80
2019-04-05T09:19:56.911Z,46.00
2019-04-05T09:22:29.529Z,45.80
2019-04-05T09:25:02.118Z,46.10
2019-04-05T09:27:33.329Z,45.70
2019-04-05T09:30:03.416Z,45.30
2019-04-05T09:32:36.574Z,44.50
2019-04-05T09:35:10.029Z,45.10
2019-04-05T09:37:41.668Z,44.70
2019-04-05T09:40:14.184Z,44.80
2019-04-05T09:45:23.826Z,45.30
2019-04-05T09:47:55.495Z,45.10
2019-04-05T09:50:25.684Z,45.30
2019-04-05T09:52:56.059Z,45.70
2019-04-05T09:55:26.025Z,46.10
2019-04-05T09:57:57.992Z,44.60
2019-04-05T10:03:18.699Z,45.50
2019-04-05T10:05:50.403Z,44.10
2019-04-05T10:08:20.582Z,43.20
2019-04-05T10:10:52.038Z,42.50
2019-04-05T10:13:24.817Z,43.90
2019-04-05T10:15:56.092Z,42.60
2019-04-05T10:18:27.037Z,42.60
2019-04-05T10:20:57.274Z,43.50
2019-04-05T10:23:30.552Z,42.70
2019-04-05T10:26:03.469Z,42.40
2019-04-05T10:28:35.956Z,42.40
2019-04-05T10:31:06.985Z,42.50
2019-04-05T10:33:39.694Z,43.60
2019-04-05T10:36:10.920Z,42.50
2019-04-05T10:38:40.969Z,41.60
2019-04-05T10:41:13.631Z,42.20
2019-04-05T10:43:46.587Z,43.20
2019-04-05T10:46:38.863Z,42.90
2019-04-05T10:49:14.931Z,42.40
2019-04-05T10:52:05.786Z,43.00
2019-04-05T10:54:36.994Z,42.40
2019-04-05T10:57:08.067Z,42.10
2019-04-05T10:59:39.278Z,40.60
2019-04-05T11:02:12.023Z,40.80
2019-04-05T11:04:43.937Z,40.90
2019-04-05T11:07:15.362Z,40.00
2019-04-05T11:09:47.899Z,40.60
2019-04-05T11:12:17.928Z,39.40
2019-04-05T11:14:50.656Z,39.70
2019-04-05T11:17:23.123Z,39.10
2019-04-05T11:19:56.108Z,39.80
2019-04-05T11:22:27.138Z,39.60
2019-04-05T11:25:00.280Z,40.50
2019-04-05T11:27:31.767Z,39.50
2019-04-05T11:30:01.851Z,40.00
2019-04-05T11:32:34.963Z,39.20
2019-04-05T11:35:08.015Z,38.90
2019-04-05T11:37:40.080Z,39.40
2019-04-05T11:40:14.354Z,39.10
2019-04-05T11:42:48.811Z,38.50
2019-04-05T11:45:22.991Z,38.90
2019-04-05T11:47:55.690Z,39.00
2019-04-05T11:50:34.600Z,38.60
2019-04-05T11:55:33.702Z,38.20
2019-04-05T11:58:09.358Z,38.00
2019-04-05T12:08:26.218Z,38.20
2019-04-05T12:11:00.417Z,38.80
2019-04-05T12:13:32.731Z,38.40
2019-04-05T12:16:06.061Z,38.20
2019-04-05T12:18:39.029Z,38.60
2019-04-05T12:21:12.979Z,38.10
2019-04-05T12:23:44.787Z,38.30
2019-04-05T12:26:16.114Z,37.50
2019-04-05T12:28:49.852Z,37.50
2019-04-05T12:31:24.958Z,38.30
2019-04-05T12:33:57.500Z,37.60
2019-04-05T12:39:21.414Z,37.20
2019-04-05T12:41:52.579Z,36.80
2019-04-05T12:44:24.278Z,36.50
2019-04-05T12:49:45.209Z,36.50
2019-04-05T12:52:22.649Z,36.80
2019-04-05T12:54:54.643Z,37.40
2019-04-05T12:59:59.363Z,37.10
2019-04-05T13:02:34.148Z,38.20
2019-04-05T13:05:06.818Z,38.30
2019-04-05T13:07:42.306Z,38.10
2019-04-05T13:10:17.074Z,37.70
2019-04-05T13:12:51.904Z,39.20
2019-04-05T13:15:23.565Z,37.90
2019-04-05T13:17:56.162Z,36.60
2019-04-05T13:20:31.006Z,36.70
2019-04-05T13:23:06.563Z,37.50
2019-04-05T13:25:40.976Z,37.60
2019-04-05T13:28:15.782Z,37.00
2019-04-05T13:30:48.249Z,37.40
2019-04-05T13:33:23.608Z,37.00
2019-04-05T13:35:58.207Z,37.70
2019-04-05T13:38:30.731Z,38.00
2019-04-05T13:41:01.585Z,38.80
2019-04-05T13:43:33.046Z,38.20
2019-04-05T13:46:05.346Z,38.20
2019-04-05T13:48:39.667Z,38.50
2019-04-05T13:51:12.197Z,38.60
2019-04-05T13:53:45.599Z,39.40
2019-04-05T13:56:17.954Z,39.90
2019-04-05T13:58:50.226Z,41.00
2019-04-05T14:01:23.153Z,41.50
2019-04-05T14:03:54.852Z,41.20
2019-04-05T14:06:24.664Z,41.70
2019-04-05T14:08:55.695Z,42.40
2019-04-05T14:11:26.109Z,42.80
2019-04-05T14:13:56.218Z,42.00
2019-04-05T14:16:27.516Z,42.50
2019-04-05T14:18:59.489Z,42.70
2019-04-05T14:21:39.753Z,41.10
2019-04-05T14:24:04.214Z,40.90
2019-04-05T14:26:37.506Z,41.90
2019-04-05T14:29:07.545Z,42.90
2019-04-05T14:31:38.680Z,43.30
2019-04-05T14:34:08.602Z,44.20
2019-04-05T14:36:47.338Z,43.50
2019-04-05T14:39:20.093Z,44.00
2019-04-05T14:41:54.773Z,43.60
2019-04-05T14:44:27.564Z,43.40
2019-04-05T14:46:58.248Z,42.40
2019-04-05T14:49:31.603Z,42.50
2019-04-05T14:52:05.392Z,42.10
2019-04-05T14:54:35.273Z,42.20
2019-04-05T14:57:07.682Z,43.30
2019-04-05T14:59:40.149Z,45.40
2019-04-05T15:02:10.855Z,48.30
2019-04-05T15:04:41.059Z,49.70
2019-04-05T15:07:12.552Z,50.10
2019-04-05T15:09:42.481Z,51.30
2019-04-05T15:12:15.235Z,51.00
2019-04-05T15:14:46.150Z,51.00
2019-04-05T15:17:19.180Z,50.90
2019-04-05T15:19:52.334Z,51.60
2019-04-05T15:22:27.451Z,50.80
2019-04-05T15:24:56.641Z,50.40
2019-04-05T15:27:28.879Z,50.00
2019-04-05T15:29:58.153Z,48.70
2019-04-05T15:32:29.470Z,48.60
2019-04-05T15:37:37.329Z,49.00
2019-04-05T15:42:44.556Z,48.10
2019-04-05T15:45:19.055Z,48.10
2019-04-05T15:47:52.388Z,46.70
2019-04-05T15:50:24.550Z,45.80
2019-04-05T15:52:55.496Z,45.50
2019-04-05T16:00:47.025Z,46.50
2019-04-05T16:03:22.357Z,46.80
2019-04-05T16:05:58.679Z,47.10
2019-04-05T16:08:32.912Z,46.90
2019-04-05T16:16:15.604Z,47.10
2019-04-05T16:18:51.471Z,47.20
2019-04-05T16:21:27.711Z,46.90
2019-04-05T16:24:00.574Z,47.50
2019-04-05T16:29:08.964Z,47.70
2019-04-05T16:34:12.533Z,48.30
2019-04-05T16:36:48.756Z,48.20
2019-04-05T16:39:21.804Z,48.30
2019-04-05T16:42:10.898Z,48.40
2019-04-05T16:44:47.572Z,48.70
2019-04-05T16:47:26.443Z,48.80
2019-04-05T16:49:57.710Z,49.10
2019-04-05T16:52:44.262Z,49.70
2019-04-05T16:55:08.162Z,50.10
2019-04-05T16:57:40.214Z,50.30
2019-04-05T17:00:15.768Z,50.90
2019-04-05T17:02:48.018Z,50.80
2019-04-05T17:05:24.568Z,50.90
2019-04-05T17:08:00.970Z,51.10
2019-04-05T17:10:36.064Z,51.50
2019-04-05T17:13:14.712Z,51.60
2019-04-05T17:18:37.618Z,51.80
2019-04-05T17:21:07.231Z,52.30
2019-04-05T17:23:40.705Z,52.40
2019-04-05T17:26:12.471Z,52.40
2019-04-05T17:28:43.384Z,52.40
2019-04-05T17:31:15.294Z,52.40
2019-04-05T17:33:46.506Z,52.30
2019-04-05T17:36:16.977Z,52.60
2019-04-05T17:38:46.863Z,52.70
2019-04-05T17:41:21.464Z,52.10
2019-04-05T17:44:02.584Z,52.10
2019-04-05T17:46:39.353Z,52.10
2019-04-05T17:49:11.333Z,52.10
2019-04-05T17:51:44.513Z,52.30
2019-04-05T17:54:18.930Z,53.00
2019-04-05T17:56:52.207Z,54.60
2019-04-05T17:59:26.092Z,55.30
2019-04-05T18:02:01.222Z,56.40
2019-04-05T18:04:33.130Z,56.40
2019-04-05T18:07:06.581Z,56.50
2019-04-05T18:09:40.506Z,57.40
2019-04-05T18:12:15.453Z,56.00
2019-04-05T18:14:50.014Z,57.40
2019-04-05T18:20:11.524Z,58.60
2019-04-05T18:22:45.129Z,56.80
2019-04-05T18:25:19.257Z,56.20
2019-04-05T18:27:52.745Z,56.10
2019-04-05T18:30:24.601Z,57.00
2019-04-05T18:32:59.315Z,56.30
2019-04-05T18:35:34.522Z,56.80
2019-04-05T18:38:08.100Z,56.70
2019-04-05T18:40:42.985Z,57.60
2019-04-05T18:43:18.721Z,58.00
2019-04-05T18:45:49.932Z,58.00
2019-04-05T18:48:19.882Z,57.80
2019-04-05T18:50:54.340Z,58.00
2019-04-05T18:53:37.095Z,58.50
2019-04-05T18:55:59.577Z,58.50
2019-04-05T18:58:31.993Z,58.20
2019-04-05T19:01:03.746Z,58.30
2019-04-05T19:03:35.426Z,59.00
2019-04-05T19:06:08.262Z,60.00
2019-04-05T19:08:42.095Z,60.90
2019-04-05T19:11:15.655Z,62.60
2019-04-05T19:14:00.364Z,62.20
2019-04-05T19:16:21.656Z,62.40
2019-04-05T19:18:55.563Z,62.50
2019-04-05T19:21:32.933Z,62.50
2019-04-05T19:24:05.674Z,63.00
2019-04-05T19:26:36.828Z,63.10
2019-04-05T19:29:06.884Z,63.90
2019-04-05T19:49:29.043Z,64.10
2019-04-05T19:52:01.699Z,64.00
2019-04-05T19:54:32.764Z,64.60
2019-04-05T19:57:04.499Z,64.20
2019-04-05T19:59:35.774Z,64.30
2019-04-05T20:02:11.613Z,64.20
2019-04-05T20:04:45.831Z,64.70
2019-04-05T20:07:37.506Z,65.40
2019-04-05T20:10:07.563Z,65.10
2019-04-05T20:12:38.475Z,65.50
2019-04-05T20:15:11.772Z,65.70
2019-04-05T20:17:46.046Z,65.70
2019-04-05T20:20:17.571Z,65.90
2019-04-05T20:25:23.028Z,65.70
2019-04-05T20:27:56.772Z,66.30
2019-04-05T20:30:28.895Z,66.40
2019-04-05T20:32:59.400Z,66.50
2019-04-05T20:35:30.568Z,66.90
2019-04-05T20:38:06.444Z,67.50
2019-04-05T20:40:40.198Z,67.70
2019-04-05T20:43:12.687Z,67.90
2019-04-05T20:48:21.029Z,68.70
2019-04-05T20:50:54.229Z,68.90
2019-04-05T20:53:26.960Z,69.10
2019-04-05T20:56:00.060Z,69.30
2019-04-05T21:01:03.499Z,69.90
2019-04-05T21:03:38.429Z,69.80
2019-04-05T21:06:10.086Z,69.60
2019-04-05T21:08:40.067Z,69.20
2019-04-05T21:11:13.803Z,69.30
2019-04-05T21:13:46.482Z,69.20
2019-04-05T21:16:15.942Z,68.80
2019-04-05T21:18:49.496Z,68.80
2019-04-05T21:21:21.836Z,69.10
2019-04-05T21:23:52.932Z,69.40
2019-04-05T21:26:23.964Z,69.60
2019-04-05T21:28:58.228Z,69.30
2019-04-05T21:31:30.721Z,69.10
2019-04-05T21:34:03.187Z,69.10
2019-04-05T21:36:34.249Z,69.20
2019-04-05T21:39:06.961Z,69.50
2019-04-05T21:41:38.135Z,70.20
2019-04-05T21:44:08.183Z,71.00
2019-04-05T21:46:40.084Z,71.20
2019-04-05T21:49:13.214Z,71.20
2019-04-05T21:51:43.261Z,71.20
2019-04-05T21:54:15.741Z,71.70
2019-04-05T21:56:48.215Z,71.60
2019-04-05T21:59:18.317Z,71.60
2019-04-05T22:01:48.949Z,72.30
2019-04-05T22:04:21.240Z,72.30
2019-04-05T22:06:52.765Z,72.60
2019-04-05T22:09:25.580Z,72.90
2019-04-05T22:11:55.564Z,72.60
2019-04-05T22:14:26.597Z,72.30
2019-04-05T22:16:59.065Z,72.40
2019-04-05T22:19:31.681Z,72.70
2019-04-05T22:22:04.470Z,73.30
2019-04-05T22:24:37.259Z,73.90
2019-04-05T22:27:08.486Z,74.40
2019-04-05T22:29:38.452Z,74.20
2019-04-05T22:32:13.492Z,74.50
2019-04-05T22:34:44.982Z,75.00
2019-04-05T22:37:16.166Z,75.60
2019-04-05T22:39:47.288Z,75.40
2019-04-05T22:42:17.888Z,75.60
2019-04-05T22:44:49.092Z,75.60
2019-04-05T22:47:20.208Z,75.50
2019-04-05T22:49:50.208Z,75.20
2019-04-05T22:52:23.746Z,75.20
2019-04-05T22:54:57.908Z,75.40
2019-04-05T22:57:27.955Z,75.40
2019-04-05T22:59:59.044Z,75.40
2019-04-05T23:02:32.224Z,75.80
2019-04-05T23:05:03.887Z,75.90
2019-04-05T23:07:36.104Z,76.20
2019-04-05T23:10:11.631Z,76.10
2019-04-05T23:12:44.083Z,76.30
2019-04-05T23:15:14.443Z,77.00
2019-04-05T23:17:47.264Z,76.70
2019-04-05T23:20:22.026Z,76.70
2019-04-05T23:22:57.168Z,77.00
2019-04-05T23:25:29.303Z,76.90
2019-04-05T23:28:01.730Z,77.10
2019-04-05T23:30:35.679Z,77.60
2019-04-05T23:33:10.871Z,77.80
2019-04-05T23:35:41.823Z,77.40
2019-04-05T23:38:11.969Z,77.90
2019-04-05T23:40:47.227Z,78.10
2019-04-05T23:43:18.250Z,77.80
2019-04-05T23:45:49.451Z,77.90
2019-04-05T23:48:21.696Z,78.30
2019-04-05T23:50:52.854Z,78.20
2019-04-05T23:53:25.336Z,78.50
2019-04-05T23:55:56.724Z,78.60
2019-04-05T23:58:29.236Z,79.10
